Aviation Digital Data Service (ADDS)

Output produced by METARs form (1907 UTC 26 September 2021)
found at http://www.aviationweather.gov/metar/data/
 
METAR text: KTRK 261850Z AUTO 24007KT 10SM SKC 23/M04 A3019 FU
Conditions at: KTRK (TRUCKEE TAHOE , CA, US) observed 1850 UTC 26 September 2021
Temperature: 23.0°C (73°F)
Dewpoint: -4.0°C (25°F) [RH = 16%]
Pressure (altimeter): 30.19 inches Hg (1022.4 mb)
Winds: from the WSW (240 degrees) at 8 MPH (7 knots; 3.6 m/s)
Visibility: 10 or more miles (16+ km)
Ceiling: at least 12,000 feet AGL
Clouds: clear skies
Weather: FU  (smoke)

METAR text: KTRK 261745Z AUTO 17010G18KT 10SM SKC 23/M03 A3019 FU
Conditions at: KTRK (TRUCKEE TAHOE , CA, US) observed 1745 UTC 26 September 2021
Temperature: 23.0°C (73°F)
Dewpoint: -3.0°C (27°F) [RH = 17%]
Pressure (altimeter): 30.19 inches Hg (1022.4 mb)
Winds: from the S (170 degrees) at 12 MPH (10 knots; 5.1 m/s)
gusting to 21 MPH (18 knots; 9.3 m/s)
Visibility: 10 or more miles (16+ km)
Ceiling: at least 12,000 feet AGL
Clouds: clear skies
Weather: FU  (smoke)

METAR text: KTRK 261645Z AUTO 19010G16KT 10SM SKC 21/M02 A3019 FU
Conditions at: KTRK (TRUCKEE TAHOE , CA, US) observed 1645 UTC 26 September 2021
Temperature: 21.0°C (70°F)
Dewpoint: -2.0°C (28°F) [RH = 21%]
Pressure (altimeter): 30.19 inches Hg (1022.4 mb)
Winds: from the S (190 degrees) at 12 MPH (10 knots; 5.1 m/s)
gusting to 18 MPH (16 knots; 8.2 m/s)
Visibility: 10 or more miles (16+ km)
Ceiling: at least 12,000 feet AGL
Clouds: clear skies
Weather: FU  (smoke)

METAR text: KTRK 261545Z AUTO 18003KT 10SM SKC 11/01 A3019 FU
Conditions at: KTRK (TRUCKEE TAHOE , CA, US) observed 1545 UTC 26 September 2021
Temperature: 11.0°C (52°F)
Dewpoint: 1.0°C (34°F) [RH = 50%]
Pressure (altimeter): 30.19 inches Hg (1022.4 mb)
Winds: from the S (180 degrees) at 3 MPH (3 knots; 1.5 m/s)
Visibility: 10 or more miles (16+ km)
Ceiling: at least 12,000 feet AGL
Clouds: clear skies
Weather: FU  (smoke)

METAR text: KTRK 261445Z AUTO 14003KT 10SM SKC 04/M01 A3019 FU
Conditions at: KTRK (TRUCKEE TAHOE , CA, US) observed 1445 UTC 26 September 2021
Temperature: 4.0°C (39°F)
Dewpoint: -1.0°C (30°F) [RH = 70%]
Pressure (altimeter): 30.19 inches Hg (1022.4 mb)
Winds: from the SE (140 degrees) at 3 MPH (3 knots; 1.5 m/s)
Visibility: 10 or more miles (16+ km)
Ceiling: at least 12,000 feet AGL
Clouds: clear skies
Weather: FU  (smoke)

METAR text: KTRK 261345Z AUTO 00000KT 10SM SKC 02/M02 A3019 FU
Conditions at: KTRK (TRUCKEE TAHOE , CA, US) observed 1345 UTC 26 September 2021
Temperature: 2.0°C (36°F)
Dewpoint: -2.0°C (28°F) [RH = 75%]
Pressure (altimeter): 30.19 inches Hg (1022.4 mb)
Winds: calm
Visibility: 10 or more miles (16+ km)
Ceiling: at least 12,000 feet AGL
Clouds: clear skies
Weather: FU  (smoke)

METAR text: KTRK 261318Z AUTO 02003KT 10SM CLR 03/M02 A3019 RMK AO2
Conditions at: KTRK (TRUCKEE TAHOE , CA, US) observed 1318 UTC 26 September 2021
Temperature: 3.0°C (37°F)
Dewpoint: -2.0°C (28°F) [RH = 70%]
Pressure (altimeter): 30.19 inches Hg (1022.4 mb)
Winds: from the NNE (20 degrees) at 3 MPH (3 knots; 1.5 m/s)
Visibility: 10 or more miles (16+ km)
Ceiling: at least 12,000 feet AGL
Clouds: sky clear below 12,000 feet AGL
Weather: automated observation with no human augmentation;
there may or may not be significant weather present at this time

METAR text: KTRK 261258Z AUTO 35004KT 10SM CLR 04/M02 A3018 RMK AO2
Conditions at: KTRK (TRUCKEE TAHOE , CA, US) observed 1258 UTC 26 September 2021
Temperature: 4.0°C (39°F)
Dewpoint: -2.0°C (28°F) [RH = 65%]
Pressure (altimeter): 30.18 inches Hg (1022.1 mb)
Winds: from the N (350 degrees) at 5 MPH (4 knots; 2.1 m/s)
Visibility: 10 or more miles (16+ km)
Ceiling: at least 12,000 feet AGL
Clouds: sky clear below 12,000 feet AGL
Weather: automated observation with no human augmentation;
there may or may not be significant weather present at this time

METAR text: KTRK 261238Z AUTO 00000KT 10SM CLR 04/M01 A3018 RMK AO2
Conditions at: KTRK (TRUCKEE TAHOE , CA, US) observed 1238 UTC 26 September 2021
Temperature: 4.0°C (39°F)
Dewpoint: -1.0°C (30°F) [RH = 70%]
Pressure (altimeter): 30.18 inches Hg (1022.1 mb)
Winds: calm
Visibility: 10 or more miles (16+ km)
Ceiling: at least 12,000 feet AGL
Clouds: sky clear below 12,000 feet AGL
Weather: automated observation with no human augmentation;
there may or may not be significant weather present at this time

METAR text: KTRK 261218Z AUTO 00000KT 10SM CLR 03/M02 A3018 RMK AO2
Conditions at: KTRK (TRUCKEE TAHOE , CA, US) observed 1218 UTC 26 September 2021
Temperature: 3.0°C (37°F)
Dewpoint: -2.0°C (28°F) [RH = 70%]
Pressure (altimeter): 30.18 inches Hg (1022.1 mb)
Winds: calm
Visibility: 10 or more miles (16+ km)
Ceiling: at least 12,000 feet AGL
Clouds: sky clear below 12,000 feet AGL
Weather: automated observation with no human augmentation;
there may or may not be significant weather present at this time

METAR text: KTRK 261158Z AUTO 00000KT 10SM CLR 02/M03 A3019 RMK AO2
Conditions at: KTRK (TRUCKEE TAHOE , CA, US) observed 1158 UTC 26 September 2021
Temperature: 2.0°C (36°F)
Dewpoint: -3.0°C (27°F) [RH = 69%]
Pressure (altimeter): 30.19 inches Hg (1022.4 mb)
Winds: calm
Visibility: 10 or more miles (16+ km)
Ceiling: at least 12,000 feet AGL
Clouds: sky clear below 12,000 feet AGL
Weather: automated observation with no human augmentation;
there may or may not be significant weather present at this time

METAR text: KTRK 261138Z AUTO 00000KT 10SM CLR 03/M01 A3020 RMK AO2
Conditions at: KTRK (TRUCKEE TAHOE , CA, US) observed 1138 UTC 26 September 2021
Temperature: 3.0°C (37°F)
Dewpoint: -1.0°C (30°F) [RH = 75%]
Pressure (altimeter): 30.20 inches Hg (1022.8 mb)
Winds: calm
Visibility: 10 or more miles (16+ km)
Ceiling: at least 12,000 feet AGL
Clouds: sky clear below 12,000 feet AGL
Weather: automated observation with no human augmentation;
there may or may not be significant weather present at this time

METAR text: KTRK 261118Z AUTO 00000KT 10SM CLR 04/M02 A3019 RMK AO2
Conditions at: KTRK (TRUCKEE TAHOE , CA, US) observed 1118 UTC 26 September 2021
Temperature: 4.0°C (39°F)
Dewpoint: -2.0°C (28°F) [RH = 65%]
Pressure (altimeter): 30.19 inches Hg (1022.4 mb)
Winds: calm
Visibility: 10 or more miles (16+ km)
Ceiling: at least 12,000 feet AGL
Clouds: sky clear below 12,000 feet AGL
Weather: automated observation with no human augmentation;
there may or may not be significant weather present at this time

METAR text: KTRK 261057Z AUTO 00000KT 10SM CLR 04/M02 A3019 RMK AO2
Conditions at: KTRK (TRUCKEE TAHOE , CA, US) observed 1057 UTC 26 September 2021
Temperature: 4.0°C (39°F)
Dewpoint: -2.0°C (28°F) [RH = 65%]
Pressure (altimeter): 30.19 inches Hg (1022.4 mb)
Winds: calm
Visibility: 10 or more miles (16+ km)
Ceiling: at least 12,000 feet AGL
Clouds: sky clear below 12,000 feet AGL
Weather: automated observation with no human augmentation;
there may or may not be significant weather present at this time

METAR text: KTRK 261037Z AUTO 00000KT 10SM CLR 06/M01 A3020 RMK AO2
Conditions at: KTRK (TRUCKEE TAHOE , CA, US) observed 1037 UTC 26 September 2021
Temperature: 6.0°C (43°F)
Dewpoint: -1.0°C (30°F) [RH = 61%]
Pressure (altimeter): 30.20 inches Hg (1022.8 mb)
Winds: calm
Visibility: 10 or more miles (16+ km)
Ceiling: at least 12,000 feet AGL
Clouds: sky clear below 12,000 feet AGL
Weather: automated observation with no human augmentation;
there may or may not be significant weather present at this time

METAR text: KTRK 261018Z AUTO 00000KT 10SM CLR 06/00 A3019 RMK AO2
Conditions at: KTRK (TRUCKEE TAHOE , CA, US) observed 1018 UTC 26 September 2021
Temperature: 6.0°C (43°F)
Dewpoint: 0.0°C (32°F) [RH = 65%]
Pressure (altimeter): 30.19 inches Hg (1022.4 mb)
Winds: calm
Visibility: 10 or more miles (16+ km)
Ceiling: at least 12,000 feet AGL
Clouds: sky clear below 12,000 feet AGL
Weather: automated observation with no human augmentation;
there may or may not be significant weather present at this time

METAR text: KTRK 260957Z AUTO 00000KT 10SM CLR 04/M01 A3020 RMK AO2
Conditions at: KTRK (TRUCKEE TAHOE , CA, US) observed 0957 UTC 26 September 2021
Temperature: 4.0°C (39°F)
Dewpoint: -1.0°C (30°F) [RH = 70%]
Pressure (altimeter): 30.20 inches Hg (1022.8 mb)
Winds: calm
Visibility: 10 or more miles (16+ km)
Ceiling: at least 12,000 feet AGL
Clouds: sky clear below 12,000 feet AGL
Weather: automated observation with no human augmentation;
there may or may not be significant weather present at this time

METAR text: KTRK 260938Z AUTO 00000KT 10SM CLR 03/M02 A3020 RMK AO2
Conditions at: KTRK (TRUCKEE TAHOE , CA, US) observed 0938 UTC 26 September 2021
Temperature: 3.0°C (37°F)
Dewpoint: -2.0°C (28°F) [RH = 70%]
Pressure (altimeter): 30.20 inches Hg (1022.8 mb)
Winds: calm
Visibility: 10 or more miles (16+ km)
Ceiling: at least 12,000 feet AGL
Clouds: sky clear below 12,000 feet AGL
Weather: automated observation with no human augmentation;
there may or may not be significant weather present at this time

METAR text: KTRK 260917Z AUTO 00000KT 10SM CLR 07/00 A3020 RMK AO2
Conditions at: KTRK (TRUCKEE TAHOE , CA, US) observed 0917 UTC 26 September 2021
Temperature: 7.0°C (45°F)
Dewpoint: 0.0°C (32°F) [RH = 61%]
Pressure (altimeter): 30.20 inches Hg (1022.8 mb)
Winds: calm
Visibility: 10 or more miles (16+ km)
Ceiling: at least 12,000 feet AGL
Clouds: sky clear below 12,000 feet AGL
Weather: automated observation with no human augmentation;
there may or may not be significant weather present at this time

METAR text: KTRK 260857Z AUTO 00000KT 10SM CLR 06/M01 A3020 RMK AO2
Conditions at: KTRK (TRUCKEE TAHOE , CA, US) observed 0857 UTC 26 September 2021
Temperature: 6.0°C (43°F)
Dewpoint: -1.0°C (30°F) [RH = 61%]
Pressure (altimeter): 30.20 inches Hg (1022.8 mb)
Winds: calm
Visibility: 10 or more miles (16+ km)
Ceiling: at least 12,000 feet AGL
Clouds: sky clear below 12,000 feet AGL
Weather: automated observation with no human augmentation;
there may or may not be significant weather present at this time

METAR text: KTRK 260838Z AUTO 00000KT 10SM CLR 07/M01 A3020 RMK AO2
Conditions at: KTRK (TRUCKEE TAHOE , CA, US) observed 0838 UTC 26 September 2021
Temperature: 7.0°C (45°F)
Dewpoint: -1.0°C (30°F) [RH = 57%]
Pressure (altimeter): 30.20 inches Hg (1022.8 mb)
Winds: calm
Visibility: 10 or more miles (16+ km)
Ceiling: at least 12,000 feet AGL
Clouds: sky clear below 12,000 feet AGL
Weather: automated observation with no human augmentation;
there may or may not be significant weather present at this time

METAR text: KTRK 260818Z AUTO 00000KT 10SM CLR 06/M01 A3020 RMK AO2
Conditions at: KTRK (TRUCKEE TAHOE , CA, US) observed 0818 UTC 26 September 2021
Temperature: 6.0°C (43°F)
Dewpoint: -1.0°C (30°F) [RH = 61%]
Pressure (altimeter): 30.20 inches Hg (1022.8 mb)
Winds: calm
Visibility: 10 or more miles (16+ km)
Ceiling: at least 12,000 feet AGL
Clouds: sky clear below 12,000 feet AGL
Weather: automated observation with no human augmentation;
there may or may not be significant weather present at this time

METAR text: KTRK 260758Z AUTO 00000KT 10SM CLR 06/M01 A3020 RMK AO2
Conditions at: KTRK (TRUCKEE TAHOE , CA, US) observed 0758 UTC 26 September 2021
Temperature: 6.0°C (43°F)
Dewpoint: -1.0°C (30°F) [RH = 61%]
Pressure (altimeter): 30.20 inches Hg (1022.8 mb)
Winds: calm
Visibility: 10 or more miles (16+ km)
Ceiling: at least 12,000 feet AGL
Clouds: sky clear below 12,000 feet AGL
Weather: automated observation with no human augmentation;
there may or may not be significant weather present at this time

METAR text: KTRK 260738Z AUTO 00000KT 10SM CLR 06/M01 A3021 RMK AO2
Conditions at: KTRK (TRUCKEE TAHOE , CA, US) observed 0738 UTC 26 September 2021
Temperature: 6.0°C (43°F)
Dewpoint: -1.0°C (30°F) [RH = 61%]
Pressure (altimeter): 30.21 inches Hg (1023.1 mb)
Winds: calm
Visibility: 10 or more miles (16+ km)
Ceiling: at least 12,000 feet AGL
Clouds: sky clear below 12,000 feet AGL
Weather: automated observation with no human augmentation;
there may or may not be significant weather present at this time

METAR text: KTRK 260718Z AUTO 00000KT 10SM CLR 08/M01 A3021 RMK AO2
Conditions at: KTRK (TRUCKEE TAHOE , CA, US) observed 0718 UTC 26 September 2021
Temperature: 8.0°C (46°F)
Dewpoint: -1.0°C (30°F) [RH = 53%]
Pressure (altimeter): 30.21 inches Hg (1023.1 mb)
Winds: calm
Visibility: 10 or more miles (16+ km)
Ceiling: at least 12,000 feet AGL
Clouds: sky clear below 12,000 feet AGL
Weather: automated observation with no human augmentation;
there may or may not be significant weather present at this time

METAR text: KTRK 260658Z AUTO 00000KT 10SM CLR 07/M02 A3020 RMK AO2
Conditions at: KTRK (TRUCKEE TAHOE , CA, US) observed 0658 UTC 26 September 2021
Temperature: 7.0°C (45°F)
Dewpoint: -2.0°C (28°F) [RH = 53%]
Pressure (altimeter): 30.20 inches Hg (1022.8 mb)
Winds: calm
Visibility: 10 or more miles (16+ km)
Ceiling: at least 12,000 feet AGL
Clouds: sky clear below 12,000 feet AGL
Weather: automated observation with no human augmentation;
there may or may not be significant weather present at this time

METAR text: KTRK 260638Z AUTO 00000KT 10SM CLR 09/M01 A3021 RMK AO2
Conditions at: KTRK (TRUCKEE TAHOE , CA, US) observed 0638 UTC 26 September 2021
Temperature: 9.0°C (48°F)
Dewpoint: -1.0°C (30°F) [RH = 49%]
Pressure (altimeter): 30.21 inches Hg (1023.1 mb)
Winds: calm
Visibility: 10 or more miles (16+ km)
Ceiling: at least 12,000 feet AGL
Clouds: sky clear below 12,000 feet AGL
Weather: automated observation with no human augmentation;
there may or may not be significant weather present at this time

METAR text: KTRK 260620Z AUTO 00000KT 10SM CLR 09/M01 A3020 RMK AO2
Conditions at: KTRK (TRUCKEE TAHOE , CA, US) observed 0620 UTC 26 September 2021
Temperature: 9.0°C (48°F)
Dewpoint: -1.0°C (30°F) [RH = 49%]
Pressure (altimeter): 30.20 inches Hg (1022.8 mb)
Winds: calm
Visibility: 10 or more miles (16+ km)
Ceiling: at least 12,000 feet AGL
Clouds: sky clear below 12,000 feet AGL
Weather: automated observation with no human augmentation;
there may or may not be significant weather present at this time

METAR text: KTRK 260558Z AUTO 00000KT 10SM CLR 08/00 A3020 RMK AO2
Conditions at: KTRK (TRUCKEE TAHOE , CA, US) observed 0558 UTC 26 September 2021
Temperature: 8.0°C (46°F)
Dewpoint: 0.0°C (32°F) [RH = 57%]
Pressure (altimeter): 30.20 inches Hg (1022.8 mb)
Winds: calm
Visibility: 10 or more miles (16+ km)
Ceiling: at least 12,000 feet AGL
Clouds: sky clear below 12,000 feet AGL
Weather: automated observation with no human augmentation;
there may or may not be significant weather present at this time

METAR text: KTRK 260538Z AUTO 00000KT 10SM CLR 09/M01 A3020 RMK AO2
Conditions at: KTRK (TRUCKEE TAHOE , CA, US) observed 0538 UTC 26 September 2021
Temperature: 9.0°C (48°F)
Dewpoint: -1.0°C (30°F) [RH = 49%]
Pressure (altimeter): 30.20 inches Hg (1022.8 mb)
Winds: calm
Visibility: 10 or more miles (16+ km)
Ceiling: at least 12,000 feet AGL
Clouds: sky clear below 12,000 feet AGL
Weather: automated observation with no human augmentation;
there may or may not be significant weather present at this time

METAR text: KTRK 260518Z AUTO 00000KT 10SM CLR 09/M01 A3020 RMK AO2
Conditions at: KTRK (TRUCKEE TAHOE , CA, US) observed 0518 UTC 26 September 2021
Temperature: 9.0°C (48°F)
Dewpoint: -1.0°C (30°F) [RH = 49%]
Pressure (altimeter): 30.20 inches Hg (1022.8 mb)
Winds: calm
Visibility: 10 or more miles (16+ km)
Ceiling: at least 12,000 feet AGL
Clouds: sky clear below 12,000 feet AGL
Weather: automated observation with no human augmentation;
there may or may not be significant weather present at this time

METAR text: KTRK 260457Z AUTO 00000KT 10SM CLR 11/M01 A3020 RMK AO2
Conditions at: KTRK (TRUCKEE TAHOE , CA, US) observed 0457 UTC 26 September 2021
Temperature: 11.0°C (52°F)
Dewpoint: -1.0°C (30°F) [RH = 43%]
Pressure (altimeter): 30.20 inches Hg (1022.8 mb)
Winds: calm
Visibility: 10 or more miles (16+ km)
Ceiling: at least 12,000 feet AGL
Clouds: sky clear below 12,000 feet AGL
Weather: automated observation with no human augmentation;
there may or may not be significant weather present at this time

METAR text: KTRK 260438Z AUTO 00000KT 10SM CLR 12/00 A3020 RMK AO2
Conditions at: KTRK (TRUCKEE TAHOE , CA, US) observed 0438 UTC 26 September 2021
Temperature: 12.0°C (54°F)
Dewpoint: 0.0°C (32°F) [RH = 44%]
Pressure (altimeter): 30.20 inches Hg (1022.8 mb)
Winds: calm
Visibility: 10 or more miles (16+ km)
Ceiling: at least 12,000 feet AGL
Clouds: sky clear below 12,000 feet AGL
Weather: automated observation with no human augmentation;
there may or may not be significant weather present at this time

METAR text: KTRK 260417Z AUTO 00000KT 10SM CLR 10/M01 A3020 RMK AO2
Conditions at: KTRK (TRUCKEE TAHOE , CA, US) observed 0417 UTC 26 September 2021
Temperature: 10.0°C (50°F)
Dewpoint: -1.0°C (30°F) [RH = 46%]
Pressure (altimeter): 30.20 inches Hg (1022.8 mb)
Winds: calm
Visibility: 10 or more miles (16+ km)
Ceiling: at least 12,000 feet AGL
Clouds: sky clear below 12,000 feet AGL
Weather: automated observation with no human augmentation;
there may or may not be significant weather present at this time

METAR text: KTRK 260358Z AUTO 00000KT 10SM CLR 12/M01 A3021 RMK AO2
Conditions at: KTRK (TRUCKEE TAHOE , CA, US) observed 0358 UTC 26 September 2021
Temperature: 12.0°C (54°F)
Dewpoint: -1.0°C (30°F) [RH = 40%]
Pressure (altimeter): 30.21 inches Hg (1023.1 mb)
Winds: calm
Visibility: 10 or more miles (16+ km)
Ceiling: at least 12,000 feet AGL
Clouds: sky clear below 12,000 feet AGL
Weather: automated observation with no human augmentation;
there may or may not be significant weather present at this time

METAR text: KTRK 260337Z AUTO 00000KT 10SM CLR 12/M01 A3020 RMK AO2
Conditions at: KTRK (TRUCKEE TAHOE , CA, US) observed 0337 UTC 26 September 2021
Temperature: 12.0°C (54°F)
Dewpoint: -1.0°C (30°F) [RH = 40%]
Pressure (altimeter): 30.20 inches Hg (1022.8 mb)
Winds: calm
Visibility: 10 or more miles (16+ km)
Ceiling: at least 12,000 feet AGL
Clouds: sky clear below 12,000 feet AGL
Weather: automated observation with no human augmentation;
there may or may not be significant weather present at this time

METAR text: KTRK 260318Z AUTO 00000KT 10SM CLR 13/M02 A3020 RMK AO2
Conditions at: KTRK (TRUCKEE TAHOE , CA, US) observed 0318 UTC 26 September 2021
Temperature: 13.0°C (55°F)
Dewpoint: -2.0°C (28°F) [RH = 35%]
Pressure (altimeter): 30.20 inches Hg (1022.8 mb)
Winds: calm
Visibility: 10 or more miles (16+ km)
Ceiling: at least 12,000 feet AGL
Clouds: sky clear below 12,000 feet AGL
Weather: automated observation with no human augmentation;
there may or may not be significant weather present at this time

METAR text: KTRK 260257Z AUTO 14003KT 10SM CLR 14/M01 A3020 RMK AO2
Conditions at: KTRK (TRUCKEE TAHOE , CA, US) observed 0257 UTC 26 September 2021
Temperature: 14.0°C (57°F)
Dewpoint: -1.0°C (30°F) [RH = 36%]
Pressure (altimeter): 30.20 inches Hg (1022.8 mb)
Winds: from the SE (140 degrees) at 3 MPH (3 knots; 1.5 m/s)
Visibility: 10 or more miles (16+ km)
Ceiling: at least 12,000 feet AGL
Clouds: sky clear below 12,000 feet AGL
Weather: automated observation with no human augmentation;
there may or may not be significant weather present at this time

METAR text: KTRK 260237Z AUTO 00000KT 10SM CLR 17/M02 A3019 RMK AO2
Conditions at: KTRK (TRUCKEE TAHOE , CA, US) observed 0237 UTC 26 September 2021
Temperature: 17.0°C (63°F)
Dewpoint: -2.0°C (28°F) [RH = 27%]
Pressure (altimeter): 30.19 inches Hg (1022.4 mb)
Winds: calm
Visibility: 10 or more miles (16+ km)
Ceiling: at least 12,000 feet AGL
Clouds: sky clear below 12,000 feet AGL
Weather: automated observation with no human augmentation;
there may or may not be significant weather present at this time

METAR text: KTRK 260218Z AUTO 00000KT 10SM CLR 18/M01 A3019 RMK AO2
Conditions at: KTRK (TRUCKEE TAHOE , CA, US) observed 0218 UTC 26 September 2021
Temperature: 18.0°C (64°F)
Dewpoint: -1.0°C (30°F) [RH = 28%]
Pressure (altimeter): 30.19 inches Hg (1022.4 mb)
Winds: calm
Visibility: 10 or more miles (16+ km)
Ceiling: at least 12,000 feet AGL
Clouds: sky clear below 12,000 feet AGL
Weather: automated observation with no human augmentation;
there may or may not be significant weather present at this time

METAR text: KTRK 260157Z AUTO 22003KT 10SM CLR 18/M01 A3019 RMK AO2
Conditions at: KTRK (TRUCKEE TAHOE , CA, US) observed 0157 UTC 26 September 2021
Temperature: 18.0°C (64°F)
Dewpoint: -1.0°C (30°F) [RH = 28%]
Pressure (altimeter): 30.19 inches Hg (1022.4 mb)
Winds: from the SW (220 degrees) at 3 MPH (3 knots; 1.5 m/s)
Visibility: 10 or more miles (16+ km)
Ceiling: at least 12,000 feet AGL
Clouds: sky clear below 12,000 feet AGL
Weather: automated observation with no human augmentation;
there may or may not be significant weather present at this time

METAR text: KTRK 260137Z AUTO 26005KT 10SM CLR 21/M01 A3019 RMK AO2
Conditions at: KTRK (TRUCKEE TAHOE , CA, US) observed 0137 UTC 26 September 2021
Temperature: 21.0°C (70°F)
Dewpoint: -1.0°C (30°F) [RH = 23%]
Pressure (altimeter): 30.19 inches Hg (1022.4 mb)
Winds: from the W (260 degrees) at 6 MPH (5 knots; 2.6 m/s)
Visibility: 10 or more miles (16+ km)
Ceiling: at least 12,000 feet AGL
Clouds: sky clear below 12,000 feet AGL
Weather: automated observation with no human augmentation;
there may or may not be significant weather present at this time

METAR text: KTRK 260118Z AUTO 25007KT 10SM CLR 22/M01 A3019 RMK AO2
Conditions at: KTRK (TRUCKEE TAHOE , CA, US) observed 0118 UTC 26 September 2021
Temperature: 22.0°C (72°F)
Dewpoint: -1.0°C (30°F) [RH = 21%]
Pressure (altimeter): 30.19 inches Hg (1022.4 mb)
Winds: from the WSW (250 degrees) at 8 MPH (7 knots; 3.6 m/s)
Visibility: 10 or more miles (16+ km)
Ceiling: at least 12,000 feet AGL
Clouds: sky clear below 12,000 feet AGL
Weather: automated observation with no human augmentation;
there may or may not be significant weather present at this time

METAR text: KTRK 260045Z AUTO 27008KT 10SM SKC 23/M02 A3019 FU
Conditions at: KTRK (TRUCKEE TAHOE , CA, US) observed 0045 UTC 26 September 2021
Temperature: 23.0°C (73°F)
Dewpoint: -2.0°C (28°F) [RH = 19%]
Pressure (altimeter): 30.19 inches Hg (1022.4 mb)
Winds: from the W (270 degrees) at 9 MPH (8 knots; 4.1 m/s)
Visibility: 10 or more miles (16+ km)
Ceiling: at least 12,000 feet AGL
Clouds: clear skies
Weather: FU  (smoke)

METAR text: KTRK 252345Z AUTO 28010G14KT 07SM SKC 24/M02 A3018 FU
Conditions at: KTRK (TRUCKEE TAHOE , CA, US) observed 2345 UTC 25 September 2021
Temperature: 24.0°C (75°F)
Dewpoint: -2.0°C (28°F) [RH = 18%]
Pressure (altimeter): 30.18 inches Hg (1022.1 mb)
Winds: from the W (280 degrees) at 12 MPH (10 knots; 5.1 m/s)
gusting to 16 MPH (14 knots; 7.2 m/s)
Visibility: 7 miles (11 km)
Ceiling: at least 12,000 feet AGL
Clouds: clear skies
Weather: FU  (smoke)

METAR text: KTRK 252245Z AUTO 26009G16KT 07SM SKC 25/M02 A3017 FU
Conditions at: KTRK (TRUCKEE TAHOE , CA, US) observed 2245 UTC 25 September 2021
Temperature: 25.0°C (77°F)
Dewpoint: -2.0°C (28°F) [RH = 17%]
Pressure (altimeter): 30.17 inches Hg (1021.8 mb)
Winds: from the W (260 degrees) at 10 MPH (9 knots; 4.6 m/s)
gusting to 18 MPH (16 knots; 8.2 m/s)
Visibility: 7 miles (11 km)
Ceiling: at least 12,000 feet AGL
Clouds: clear skies
Weather: FU  (smoke)

METAR text: KTRK 252145Z AUTO 21012G18KT 07SM SKC 26/M02 A3019 FU
Conditions at: KTRK (TRUCKEE TAHOE , CA, US) observed 2145 UTC 25 September 2021
Temperature: 26.0°C (79°F)
Dewpoint: -2.0°C (28°F) [RH = 16%]
Pressure (altimeter): 30.19 inches Hg (1022.4 mb)
Winds: from the SSW (210 degrees) at 14 MPH (12 knots; 6.2 m/s)
gusting to 21 MPH (18 knots; 9.3 m/s)
Visibility: 7 miles (11 km)
Ceiling: at least 12,000 feet AGL
Clouds: clear skies
Weather: FU  (smoke)

METAR text: KTRK 252045Z AUTO 20013G16KT 07SM SKC 26/M02 A3020 FU
Conditions at: KTRK (TRUCKEE TAHOE , CA, US) observed 2045 UTC 25 September 2021
Temperature: 26.0°C (79°F)
Dewpoint: -2.0°C (28°F) [RH = 16%]
Pressure (altimeter): 30.20 inches Hg (1022.8 mb)
Winds: from the SSW (200 degrees) at 15 MPH (13 knots; 6.7 m/s)
gusting to 18 MPH (16 knots; 8.2 m/s)
Visibility: 7 miles (11 km)
Ceiling: at least 12,000 feet AGL
Clouds: clear skies
Weather: FU  (smoke)

METAR text: KTRK 251945Z AUTO 21012G16KT 160V220 07SM SKC 26/M03 A3022 FU
Conditions at: KTRK (TRUCKEE TAHOE , CA, US) observed 1945 UTC 25 September 2021
Temperature: 26.0°C (79°F)
Dewpoint: -3.0°C (27°F) [RH = 15%]
Pressure (altimeter): 30.22 inches Hg (1023.5 mb)
Winds: from the SSW (210 degrees) at 14 MPH (12 knots; 6.2 m/s)
gusting to 18 MPH (16 knots; 8.2 m/s)
Visibility: 7 miles (11 km)
Ceiling: at least 12,000 feet AGL
Clouds: clear skies
Weather: FU  (smoke)

METAR text: KTRK 251845Z AUTO 00000KT 8SM SKC 24/M01 A3023 FU
Conditions at: KTRK (TRUCKEE TAHOE , CA, US) observed 1845 UTC 25 September 2021
Temperature: 24.0°C (75°F)
Dewpoint: -1.0°C (30°F) [RH = 19%]
Pressure (altimeter): 30.23 inches Hg (1023.8 mb)
Winds: calm
Visibility: 8 miles (13 km)
Ceiling: at least 12,000 feet AGL
Clouds: clear skies
Weather: FU  (smoke)

METAR text: KTRK 251745Z AUTO 00000KT 10SM SKC 19/02 A3026 FU
Conditions at: KTRK (TRUCKEE TAHOE , CA, US) observed 1745 UTC 25 September 2021
Temperature: 19.0°C (66°F)
Dewpoint: 2.0°C (36°F) [RH = 32%]
Pressure (altimeter): 30.26 inches Hg (1024.8 mb)
Winds: calm
Visibility: 10 or more miles (16+ km)
Ceiling: at least 12,000 feet AGL
Clouds: clear skies
Weather: FU  (smoke)

METAR text: KTRK 251645Z AUTO 00000KT 10SM SKC 13/00 A3027 FU
Conditions at: KTRK (TRUCKEE TAHOE , CA, US) observed 1645 UTC 25 September 2021
Temperature: 13.0°C (55°F)
Dewpoint: 0.0°C (32°F) [RH = 41%]
Pressure (altimeter): 30.27 inches Hg (1025.1 mb)
Winds: calm
Visibility: 10 or more miles (16+ km)
Ceiling: at least 12,000 feet AGL
Clouds: clear skies
Weather: FU  (smoke)

METAR text: KTRK 251545Z AUTO 00000KT 10SM SKC 08/00 A3027 FU
Conditions at: KTRK (TRUCKEE TAHOE , CA, US) observed 1545 UTC 25 September 2021
Temperature: 8.0°C (46°F)
Dewpoint: 0.0°C (32°F) [RH = 57%]
Pressure (altimeter): 30.27 inches Hg (1025.1 mb)
Winds: calm
Visibility: 10 or more miles (16+ km)
Ceiling: at least 12,000 feet AGL
Clouds: clear skies
Weather: FU  (smoke)

METAR text: KTRK 251445Z AUTO 00000KT 10SM SKC 02/M02 A3027 FU
Conditions at: KTRK (TRUCKEE TAHOE , CA, US) observed 1445 UTC 25 September 2021
Temperature: 2.0°C (36°F)
Dewpoint: -2.0°C (28°F) [RH = 75%]
Pressure (altimeter): 30.27 inches Hg (1025.1 mb)
Winds: calm
Visibility: 10 or more miles (16+ km)
Ceiling: at least 12,000 feet AGL
Clouds: clear skies
Weather: FU  (smoke)

METAR text: KTRK 251345Z AUTO 00000KT 10SM SKC 01/M03 A3026 FU
Conditions at: KTRK (TRUCKEE TAHOE , CA, US) observed 1345 UTC 25 September 2021
Temperature: 1.0°C (34°F)
Dewpoint: -3.0°C (27°F) [RH = 75%]
Pressure (altimeter): 30.26 inches Hg (1024.8 mb)
Winds: calm
Visibility: 10 or more miles (16+ km)
Ceiling: at least 12,000 feet AGL
Clouds: clear skies
Weather: FU  (smoke)

METAR text: KTRK 251318Z AUTO 00000KT 10SM CLR 02/M02 A3026 RMK AO2
Conditions at: KTRK (TRUCKEE TAHOE , CA, US) observed 1318 UTC 25 September 2021
Temperature: 2.0°C (36°F)
Dewpoint: -2.0°C (28°F) [RH = 75%]
Pressure (altimeter): 30.26 inches Hg (1024.8 mb)
Winds: calm
Visibility: 10 or more miles (16+ km)
Ceiling: at least 12,000 feet AGL
Clouds: sky clear below 12,000 feet AGL
Weather: automated observation with no human augmentation;
there may or may not be significant weather present at this time

METAR text: KTRK 251258Z AUTO 00000KT 10SM CLR 03/M02 A3025 RMK AO2
Conditions at: KTRK (TRUCKEE TAHOE , CA, US) observed 1258 UTC 25 September 2021
Temperature: 3.0°C (37°F)
Dewpoint: -2.0°C (28°F) [RH = 70%]
Pressure (altimeter): 30.25 inches Hg (1024.5 mb)
Winds: calm
Visibility: 10 or more miles (16+ km)
Ceiling: at least 12,000 feet AGL
Clouds: sky clear below 12,000 feet AGL
Weather: automated observation with no human augmentation;
there may or may not be significant weather present at this time

METAR text: KTRK 251238Z AUTO 00000KT 10SM CLR 03/M01 A3025 RMK AO2
Conditions at: KTRK (TRUCKEE TAHOE , CA, US) observed 1238 UTC 25 September 2021
Temperature: 3.0°C (37°F)
Dewpoint: -1.0°C (30°F) [RH = 75%]
Pressure (altimeter): 30.25 inches Hg (1024.5 mb)
Winds: calm
Visibility: 10 or more miles (16+ km)
Ceiling: at least 12,000 feet AGL
Clouds: sky clear below 12,000 feet AGL
Weather: automated observation with no human augmentation;
there may or may not be significant weather present at this time

METAR text: KTRK 251218Z AUTO 00000KT 10SM CLR 03/M02 A3025 RMK AO2
Conditions at: KTRK (TRUCKEE TAHOE , CA, US) observed 1218 UTC 25 September 2021
Temperature: 3.0°C (37°F)
Dewpoint: -2.0°C (28°F) [RH = 70%]
Pressure (altimeter): 30.25 inches Hg (1024.5 mb)
Winds: calm
Visibility: 10 or more miles (16+ km)
Ceiling: at least 12,000 feet AGL
Clouds: sky clear below 12,000 feet AGL
Weather: automated observation with no human augmentation;
there may or may not be significant weather present at this time

METAR text: KTRK 251200Z AUTO 00000KT 10SM CLR 03/M02 A3025 RMK AO2
Conditions at: KTRK (TRUCKEE TAHOE , CA, US) observed 1200 UTC 25 September 2021
Temperature: 3.0°C (37°F)
Dewpoint: -2.0°C (28°F) [RH = 70%]
Pressure (altimeter): 30.25 inches Hg (1024.5 mb)
Winds: calm
Visibility: 10 or more miles (16+ km)
Ceiling: at least 12,000 feet AGL
Clouds: sky clear below 12,000 feet AGL
Weather: automated observation with no human augmentation;
there may or may not be significant weather present at this time

METAR text: KTRK 251138Z AUTO 00000KT 10SM CLR 04/M01 A3024 RMK AO2
Conditions at: KTRK (TRUCKEE TAHOE , CA, US) observed 1138 UTC 25 September 2021
Temperature: 4.0°C (39°F)
Dewpoint: -1.0°C (30°F) [RH = 70%]
Pressure (altimeter): 30.24 inches Hg (1024.1 mb)
Winds: calm
Visibility: 10 or more miles (16+ km)
Ceiling: at least 12,000 feet AGL
Clouds: sky clear below 12,000 feet AGL
Weather: automated observation with no human augmentation;
there may or may not be significant weather present at this time

METAR text: KTRK 251117Z AUTO 00000KT 10SM CLR 04/M01 A3024 RMK AO2
Conditions at: KTRK (TRUCKEE TAHOE , CA, US) observed 1117 UTC 25 September 2021
Temperature: 4.0°C (39°F)
Dewpoint: -1.0°C (30°F) [RH = 70%]
Pressure (altimeter): 30.24 inches Hg (1024.1 mb)
Winds: calm
Visibility: 10 or more miles (16+ km)
Ceiling: at least 12,000 feet AGL
Clouds: sky clear below 12,000 feet AGL
Weather: automated observation with no human augmentation;
there may or may not be significant weather present at this time

METAR text: KTRK 251058Z AUTO 00000KT 10SM CLR 04/M01 A3025 RMK AO2
Conditions at: KTRK (TRUCKEE TAHOE , CA, US) observed 1058 UTC 25 September 2021
Temperature: 4.0°C (39°F)
Dewpoint: -1.0°C (30°F) [RH = 70%]
Pressure (altimeter): 30.25 inches Hg (1024.5 mb)
Winds: calm
Visibility: 10 or more miles (16+ km)
Ceiling: at least 12,000 feet AGL
Clouds: sky clear below 12,000 feet AGL
Weather: automated observation with no human augmentation;
there may or may not be significant weather present at this time

METAR text: KTRK 251038Z AUTO 00000KT 10SM CLR 05/M01 A3025 RMK AO2
Conditions at: KTRK (TRUCKEE TAHOE , CA, US) observed 1038 UTC 25 September 2021
Temperature: 5.0°C (41°F)
Dewpoint: -1.0°C (30°F) [RH = 65%]
Pressure (altimeter): 30.25 inches Hg (1024.5 mb)
Winds: calm
Visibility: 10 or more miles (16+ km)
Ceiling: at least 12,000 feet AGL
Clouds: sky clear below 12,000 feet AGL
Weather: automated observation with no human augmentation;
there may or may not be significant weather present at this time

METAR text: KTRK 251017Z AUTO 00000KT 10SM CLR 05/M01 A3024 RMK AO2
Conditions at: KTRK (TRUCKEE TAHOE , CA, US) observed 1017 UTC 25 September 2021
Temperature: 5.0°C (41°F)
Dewpoint: -1.0°C (30°F) [RH = 65%]
Pressure (altimeter): 30.24 inches Hg (1024.1 mb)
Winds: calm
Visibility: 10 or more miles (16+ km)
Ceiling: at least 12,000 feet AGL
Clouds: sky clear below 12,000 feet AGL
Weather: automated observation with no human augmentation;
there may or may not be significant weather present at this time

METAR text: KTRK 250958Z AUTO 00000KT 10SM CLR 06/M01 A3024 RMK AO2
Conditions at: KTRK (TRUCKEE TAHOE , CA, US) observed 0958 UTC 25 September 2021
Temperature: 6.0°C (43°F)
Dewpoint: -1.0°C (30°F) [RH = 61%]
Pressure (altimeter): 30.24 inches Hg (1024.1 mb)
Winds: calm
Visibility: 10 or more miles (16+ km)
Ceiling: at least 12,000 feet AGL
Clouds: sky clear below 12,000 feet AGL
Weather: automated observation with no human augmentation;
there may or may not be significant weather present at this time

METAR text: KTRK 250938Z AUTO 00000KT 10SM CLR 07/00 A3025 RMK AO2
Conditions at: KTRK (TRUCKEE TAHOE , CA, US) observed 0938 UTC 25 September 2021
Temperature: 7.0°C (45°F)
Dewpoint: 0.0°C (32°F) [RH = 61%]
Pressure (altimeter): 30.25 inches Hg (1024.5 mb)
Winds: calm
Visibility: 10 or more miles (16+ km)
Ceiling: at least 12,000 feet AGL
Clouds: sky clear below 12,000 feet AGL
Weather: automated observation with no human augmentation;
there may or may not be significant weather present at this time

METAR text: KTRK 250917Z AUTO 00000KT 10SM CLR 06/00 A3025 RMK AO2
Conditions at: KTRK (TRUCKEE TAHOE , CA, US) observed 0917 UTC 25 September 2021
Temperature: 6.0°C (43°F)
Dewpoint: 0.0°C (32°F) [RH = 65%]
Pressure (altimeter): 30.25 inches Hg (1024.5 mb)
Winds: calm
Visibility: 10 or more miles (16+ km)
Ceiling: at least 12,000 feet AGL
Clouds: sky clear below 12,000 feet AGL
Weather: automated observation with no human augmentation;
there may or may not be significant weather present at this time

METAR text: KTRK 250857Z AUTO 00000KT 10SM CLR 06/00 A3024 RMK AO2
Conditions at: KTRK (TRUCKEE TAHOE , CA, US) observed 0857 UTC 25 September 2021
Temperature: 6.0°C (43°F)
Dewpoint: 0.0°C (32°F) [RH = 65%]
Pressure (altimeter): 30.24 inches Hg (1024.1 mb)
Winds: calm
Visibility: 10 or more miles (16+ km)
Ceiling: at least 12,000 feet AGL
Clouds: sky clear below 12,000 feet AGL
Weather: automated observation with no human augmentation;
there may or may not be significant weather present at this time

METAR text: KTRK 250837Z AUTO 00000KT 10SM CLR 08/00 A3024 RMK AO2
Conditions at: KTRK (TRUCKEE TAHOE , CA, US) observed 0837 UTC 25 September 2021
Temperature: 8.0°C (46°F)
Dewpoint: 0.0°C (32°F) [RH = 57%]
Pressure (altimeter): 30.24 inches Hg (1024.1 mb)
Winds: calm
Visibility: 10 or more miles (16+ km)
Ceiling: at least 12,000 feet AGL
Clouds: sky clear below 12,000 feet AGL
Weather: automated observation with no human augmentation;
there may or may not be significant weather present at this time

METAR text: KTRK 250817Z AUTO 00000KT 10SM CLR 07/00 A3023 RMK AO2
Conditions at: KTRK (TRUCKEE TAHOE , CA, US) observed 0817 UTC 25 September 2021
Temperature: 7.0°C (45°F)
Dewpoint: 0.0°C (32°F) [RH = 61%]
Pressure (altimeter): 30.23 inches Hg (1023.8 mb)
Winds: calm
Visibility: 10 or more miles (16+ km)
Ceiling: at least 12,000 feet AGL
Clouds: sky clear below 12,000 feet AGL
Weather: automated observation with no human augmentation;
there may or may not be significant weather present at this time

METAR text: KTRK 250757Z AUTO 00000KT 10SM CLR 07/M01 A3023 RMK AO2
Conditions at: KTRK (TRUCKEE TAHOE , CA, US) observed 0757 UTC 25 September 2021
Temperature: 7.0°C (45°F)
Dewpoint: -1.0°C (30°F) [RH = 57%]
Pressure (altimeter): 30.23 inches Hg (1023.8 mb)
Winds: calm
Visibility: 10 or more miles (16+ km)
Ceiling: at least 12,000 feet AGL
Clouds: sky clear below 12,000 feet AGL
Weather: automated observation with no human augmentation;
there may or may not be significant weather present at this time

METAR text: KTRK 250737Z AUTO 00000KT 10SM CLR 07/M01 A3024 RMK AO2
Conditions at: KTRK (TRUCKEE TAHOE , CA, US) observed 0737 UTC 25 September 2021
Temperature: 7.0°C (45°F)
Dewpoint: -1.0°C (30°F) [RH = 57%]
Pressure (altimeter): 30.24 inches Hg (1024.1 mb)
Winds: calm
Visibility: 10 or more miles (16+ km)
Ceiling: at least 12,000 feet AGL
Clouds: sky clear below 12,000 feet AGL
Weather: automated observation with no human augmentation;
there may or may not be significant weather present at this time

METAR text: KTRK 250717Z AUTO 00000KT 10SM CLR 08/M01 A3024 RMK AO2
Conditions at: KTRK (TRUCKEE TAHOE , CA, US) observed 0717 UTC 25 September 2021
Temperature: 8.0°C (46°F)
Dewpoint: -1.0°C (30°F) [RH = 53%]
Pressure (altimeter): 30.24 inches Hg (1024.1 mb)
Winds: calm
Visibility: 10 or more miles (16+ km)
Ceiling: at least 12,000 feet AGL
Clouds: sky clear below 12,000 feet AGL
Weather: automated observation with no human augmentation;
there may or may not be significant weather present at this time

Forecast for: KTRK (TRUCKEE TAHOE , CA, US)
Text: KTRK 261720Z 2618/2718 18011KT P6SM SCT200
Forecast period: 1800 to 1900 UTC 26 September 2021
Forecast type: FROM: standard forecast or significant change
Winds: from the S (180 degrees) at 13 MPH (11 knots; 5.7 m/s)
Visibility: 6 or more miles (10+ km)
Ceiling: at least 12,000 feet AGL
Clouds: scattered clouds at 20000 feet AGL
Weather: no significant weather forecast for this period
Text: FM261900 24014G23KT P6SM FEW200
Forecast period: 1900 UTC 26 September 2021 to 0400 UTC 27 September 2021
Forecast type: FROM: standard forecast or significant change
Winds: from the WSW (240 degrees) at 16 MPH (14 knots; 7.2 m/s)
gusting to 26 MPH (23 knots; 11.8 m/s)
Visibility: 6 or more miles (10+ km)
Ceiling: at least 12,000 feet AGL
Clouds: few clouds at 20000 feet AGL
Weather: no significant weather forecast for this period
Text: FM270400 20005KT P6SM SCT250 WS020/23035KT
Forecast period: 0400 to 1700 UTC 27 September 2021
Forecast type: FROM: standard forecast or significant change
Winds: from the SSW (200 degrees) at 6 MPH (5 knots; 2.6 m/s)
Visibility: 6 or more miles (10+ km)
Ceiling: at least 12,000 feet AGL
Clouds: scattered clouds at 25000 feet AGL
Wind Shear: at 2000 feet ( 610 m) AGL, from the SW (230 degrees) at 40 MPH (35 knots; 18.2 m/s)
Weather: no significant weather forecast for this period
Text: FM271700 21010G18KT P6SM FEW150 SCT200
Forecast period: 1700 to 1800 UTC 27 September 2021
Forecast type: FROM: standard forecast or significant change
Winds: from the SSW (210 degrees) at 12 MPH (10 knots; 5.1 m/s)
gusting to 21 MPH (18 knots; 9.3 m/s)
Visibility: 6 or more miles (10+ km)
Ceiling: at least 12,000 feet AGL
Clouds: few clouds at 15000 feet AGL
scattered clouds at 20000 feet AGL
Weather: no significant weather forecast for this period